sensor_id;sensor_type;location;lat;lon;timestamp;P1;durP1;ratioP1;P2;durP2;ratioP2
75687;SDS011;64300;45.034;38.910;2022-10-22T00:00:40;11.95;;;4.75;;
75687;SDS011;64300;45.034;38.910;2022-10-22T00:03:06;12.65;;;4.03;;
75687;SDS011;64300;45.034;38.910;2022-10-22T00:07:57;9.15;;;4.55;;
75687;SDS011;64300;45.034;38.910;2022-10-22T00:10:23;9.25;;;3.95;;
75687;SDS011;64300;45.034;38.910;2022-10-22T00:12:49;9.77;;;4.53;;
75687;SDS011;64300;45.034;38.910;2022-10-22T00:17:41;7.55;;;4.13;;
75687;SDS011;64300;45.034;38.910;2022-10-22T00:22:33;10.95;;;4.18;;
75687;SDS011;64300;45.034;38.910;2022-10-22T00:24:59;8.57;;;4.10;;
75687;SDS011;64300;45.034;38.910;2022-10-22T00:29:53;7.45;;;4.10;;
75687;SDS011;64300;45.034;38.910;2022-10-22T00:34:45;12.00;;;4.68;;
75687;SDS011;64300;45.034;38.910;2022-10-22T00:37:11;9.40;;;3.92;;
75687;SDS011;64300;45.034;38.910;2022-10-22T00:42:02;6.45;;;3.78;;
75687;SDS011;64300;45.034;38.910;2022-10-22T00:47:16;10.63;;;3.90;;
75687;SDS011;64300;45.034;38.910;2022-10-22T00:49:43;5.82;;;3.42;;
75687;SDS011;64300;45.034;38.910;2022-10-22T00:55:00;8.18;;;3.67;;
75687;SDS011;64300;45.034;38.910;2022-10-22T00:57:26;5.85;;;3.75;;
75687;SDS011;64300;45.034;38.910;2022-10-22T00:59:53;7.40;;;3.85;;
75687;SDS011;64300;45.034;38.910;2022-10-22T01:02:23;8.27;;;3.92;;
75687;SDS011;64300;45.034;38.910;2022-10-22T01:07:19;7.35;;;3.65;;
75687;SDS011;64300;45.034;38.910;2022-10-22T01:18:01;11.00;;;3.85;;
75687;SDS011;64300;45.034;38.910;2022-10-22T01:23:38;6.15;;;3.53;;
75687;SDS011;64300;45.034;38.910;2022-10-22T01:29:26;9.70;;;3.30;;
75687;SDS011;64300;45.034;38.910;2022-10-22T01:31:58;11.00;;;3.53;;
75687;SDS011;64300;45.034;38.910;2022-10-22T01:34:27;7.38;;;3.33;;
75687;SDS011;64300;45.034;38.910;2022-10-22T01:36:55;7.30;;;3.63;;
75687;SDS011;64300;45.034;38.910;2022-10-22T01:39:23;7.07;;;3.30;;
75687;SDS011;64300;45.034;38.910;2022-10-22T01:41:53;9.32;;;2.92;;
75687;SDS011;64300;45.034;38.910;2022-10-22T01:44:30;6.05;;;3.20;;
75687;SDS011;64300;45.034;38.910;2022-10-22T02:01:25;5.78;;;2.75;;
75687;SDS011;64300;45.034;38.910;2022-10-22T02:03:55;6.35;;;3.15;;
75687;SDS011;64300;45.034;38.910;2022-10-22T02:09:03;7.70;;;2.78;;
75687;SDS011;64300;45.034;38.910;2022-10-22T02:11:30;8.02;;;2.80;;
75687;SDS011;64300;45.034;38.910;2022-10-22T02:13:57;5.72;;;3.10;;
75687;SDS011;64300;45.034;38.910;2022-10-22T02:19:01;5.90;;;2.58;;
75687;SDS011;64300;45.034;38.910;2022-10-22T02:21:49;5.43;;;2.83;;
75687;SDS011;64300;45.034;38.910;2022-10-22T02:24:16;5.00;;;2.67;;
75687;SDS011;64300;45.034;38.910;2022-10-22T02:32:08;8.20;;;2.95;;
75687;SDS011;64300;45.034;38.910;2022-10-22T02:34:39;6.63;;;2.83;;
75687;SDS011;64300;45.034;38.910;2022-10-22T02:37:06;5.95;;;2.83;;
75687;SDS011;64300;45.034;38.910;2022-10-22T02:39:33;5.57;;;2.70;;
75687;SDS011;64300;45.034;38.910;2022-10-22T02:42:01;5.90;;;2.83;;
75687;SDS011;64300;45.034;38.910;2022-10-22T02:44:27;7.32;;;3.20;;
75687;SDS011;64300;45.034;38.910;2022-10-22T02:49:19;11.18;;;3.78;;
75687;SDS011;64300;45.034;38.910;2022-10-22T02:54:11;14.30;;;3.47;;
75687;SDS011;64300;45.034;38.910;2022-10-22T02:56:39;9.02;;;3.63;;
75687;SDS011;64300;45.034;38.910;2022-10-22T03:01:33;12.73;;;3.63;;
75687;SDS011;64300;45.034;38.910;2022-10-22T03:06:25;11.23;;;3.65;;
75687;SDS011;64300;45.034;38.910;2022-10-22T03:08:51;24.00;;;4.05;;
75687;SDS011;64300;45.034;38.910;2022-10-22T03:13:42;17.23;;;3.88;;
75687;SDS011;64300;45.034;38.910;2022-10-22T03:18:34;7.72;;;3.08;;
75687;SDS011;64300;45.034;38.910;2022-10-22T03:21:01;11.52;;;3.60;;
75687;SDS011;64300;45.034;38.910;2022-10-22T03:23:32;13.10;;;3.67;;
75687;SDS011;64300;45.034;38.910;2022-10-22T03:25:58;15.77;;;5.72;;
75687;SDS011;64300;45.034;38.910;2022-10-22T03:28:24;9.40;;;3.17;;
75687;SDS011;64300;45.034;38.910;2022-10-22T03:30:51;17.92;;;3.65;;
75687;SDS011;64300;45.034;38.910;2022-10-22T03:35:43;16.00;;;3.00;;
75687;SDS011;64300;45.034;38.910;2022-10-22T03:38:11;8.10;;;3.53;;
75687;SDS011;64300;45.034;38.910;2022-10-22T03:40:37;7.30;;;2.88;;
75687;SDS011;64300;45.034;38.910;2022-10-22T03:43:04;10.27;;;3.10;;
75687;SDS011;64300;45.034;38.910;2022-10-22T03:47:58;12.00;;;3.28;;
75687;SDS011;64300;45.034;38.910;2022-10-22T03:50:24;9.85;;;3.50;;
75687;SDS011;64300;45.034;38.910;2022-10-22T03:55:17;7.25;;;2.63;;
75687;SDS011;64300;45.034;38.910;2022-10-22T03:57:43;5.93;;;2.72;;
75687;SDS011;64300;45.034;38.910;2022-10-22T04:02:38;7.10;;;2.67;;
75687;SDS011;64300;45.034;38.910;2022-10-22T04:07:30;7.63;;;3.10;;
75687;SDS011;64300;45.034;38.910;2022-10-22T04:09:55;8.35;;;2.72;;
75687;SDS011;64300;45.034;38.910;2022-10-22T04:12:21;12.32;;;3.10;;
75687;SDS011;64300;45.034;38.910;2022-10-22T04:14:53;8.85;;;3.30;;
75687;SDS011;64300;45.034;38.910;2022-10-22T04:19:45;6.50;;;2.90;;
75687;SDS011;64300;45.034;38.910;2022-10-22T04:22:11;6.32;;;3.45;;
75687;SDS011;64300;45.034;38.910;2022-10-22T04:27:02;5.93;;;2.85;;
75687;SDS011;64300;45.034;38.910;2022-10-22T04:29:28;7.05;;;2.95;;
75687;SDS011;64300;45.034;38.910;2022-10-22T04:31:54;11.70;;;2.90;;
75687;SDS011;64300;45.034;38.910;2022-10-22T04:36:49;10.68;;;3.30;;
75687;SDS011;64300;45.034;38.910;2022-10-22T04:39:18;10.55;;;2.92;;
75687;SDS011;64300;45.034;38.910;2022-10-22T04:41:58;9.20;;;2.83;;
75687;SDS011;64300;45.034;38.910;2022-10-22T04:44:24;9.57;;;3.35;;
75687;SDS011;64300;45.034;38.910;2022-10-22T04:46:52;11.95;;;4.10;;
75687;SDS011;64300;45.034;38.910;2022-10-22T04:51:44;5.85;;;2.88;;
75687;SDS011;64300;45.034;38.910;2022-10-22T04:56:36;14.10;;;3.20;;
75687;SDS011;64300;45.034;38.910;2022-10-22T05:01:35;8.45;;;2.63;;
75687;SDS011;64300;45.034;38.910;2022-10-22T05:04:04;11.77;;;3.70;;
75687;SDS011;64300;45.034;38.910;2022-10-22T05:06:31;9.73;;;3.28;;
75687;SDS011;64300;45.034;38.910;2022-10-22T05:08:59;8.93;;;3.75;;
75687;SDS011;64300;45.034;38.910;2022-10-22T05:11:34;5.85;;;2.38;;
75687;SDS011;64300;45.034;38.910;2022-10-22T05:14:02;19.42;;;3.00;;
75687;SDS011;64300;45.034;38.910;2022-10-22T05:16:31;8.25;;;2.95;;
75687;SDS011;64300;45.034;38.910;2022-10-22T05:18:58;7.15;;;2.60;;
75687;SDS011;64300;45.034;38.910;2022-10-22T05:21:24;5.47;;;2.75;;
75687;SDS011;64300;45.034;38.910;2022-10-22T05:23:51;5.30;;;2.60;;
75687;SDS011;64300;45.034;38.910;2022-10-22T05:26:23;7.38;;;2.67;;
75687;SDS011;64300;45.034;38.910;2022-10-22T05:28:49;6.32;;;2.45;;
75687;SDS011;64300;45.034;38.910;2022-10-22T05:31:21;5.07;;;2.80;;
75687;SDS011;64300;45.034;38.910;2022-10-22T05:36:17;5.53;;;2.67;;
75687;SDS011;64300;45.034;38.910;2022-10-22T05:38:45;7.00;;;2.80;;
75687;SDS011;64300;45.034;38.910;2022-10-22T05:41:15;8.60;;;2.70;;
75687;SDS011;64300;45.034;38.910;2022-10-22T05:43:45;6.82;;;3.08;;
75687;SDS011;64300;45.034;38.910;2022-10-22T05:46:13;6.75;;;2.65;;
75687;SDS011;64300;45.034;38.910;2022-10-22T05:48:41;7.80;;;3.03;;
75687;SDS011;64300;45.034;38.910;2022-10-22T05:51:08;8.32;;;2.88;;
75687;SDS011;64300;45.034;38.910;2022-10-22T05:53:36;9.00;;;2.92;;
75687;SDS011;64300;45.034;38.910;2022-10-22T05:56:05;8.07;;;3.00;;
75687;SDS011;64300;45.034;38.910;2022-10-22T05:58:33;6.43;;;2.50;;
75687;SDS011;64300;45.034;38.910;2022-10-22T06:01:04;4.95;;;2.67;;
75687;SDS011;64300;45.034;38.910;2022-10-22T06:03:40;5.68;;;2.67;;
75687;SDS011;64300;45.034;38.910;2022-10-22T06:06:20;7.53;;;3.10;;
75687;SDS011;64300;45.034;38.910;2022-10-22T06:08:49;7.72;;;2.83;;
75687;SDS011;64300;45.034;38.910;2022-10-22T06:11:17;6.25;;;3.03;;
75687;SDS011;64300;45.034;38.910;2022-10-22T06:13:47;6.35;;;2.90;;
75687;SDS011;64300;45.034;38.910;2022-10-22T06:16:15;8.82;;;3.03;;
75687;SDS011;64300;45.034;38.910;2022-10-22T06:18:41;9.07;;;2.97;;
75687;SDS011;64300;45.034;38.910;2022-10-22T06:21:08;8.43;;;3.63;;
75687;SDS011;64300;45.034;38.910;2022-10-22T06:23:35;7.47;;;3.25;;
75687;SDS011;64300;45.034;38.910;2022-10-22T06:26:03;6.45;;;3.00;;
75687;SDS011;64300;45.034;38.910;2022-10-22T06:28:30;5.60;;;3.35;;
75687;SDS011;64300;45.034;38.910;2022-10-22T06:30:57;7.18;;;3.40;;
75687;SDS011;64300;45.034;38.910;2022-10-22T06:33:24;8.07;;;3.28;;
75687;SDS011;64300;45.034;38.910;2022-10-22T06:35:50;7.90;;;3.03;;
75687;SDS011;64300;45.034;38.910;2022-10-22T06:38:16;14.40;;;3.40;;
75687;SDS011;64300;45.034;38.910;2022-10-22T06:40:42;5.75;;;2.83;;
75687;SDS011;64300;45.034;38.910;2022-10-22T06:43:12;5.45;;;3.10;;
75687;SDS011;64300;45.034;38.910;2022-10-22T06:45:39;4.70;;;2.50;;
75687;SDS011;64300;45.034;38.910;2022-10-22T06:48:05;6.55;;;2.90;;
75687;SDS011;64300;45.034;38.910;2022-10-22T06:50:34;6.88;;;2.70;;
75687;SDS011;64300;45.034;38.910;2022-10-22T06:53:01;7.32;;;2.78;;
75687;SDS011;64300;45.034;38.910;2022-10-22T06:55:30;5.10;;;2.70;;
75687;SDS011;64300;45.034;38.910;2022-10-22T06:57:56;6.38;;;2.42;;
75687;SDS011;64300;45.034;38.910;2022-10-22T07:00:22;4.07;;;2.35;;
75687;SDS011;64300;45.034;38.910;2022-10-22T07:02:51;4.65;;;2.33;;
75687;SDS011;64300;45.034;38.910;2022-10-22T07:05:18;3.78;;;2.10;;
75687;SDS011;64300;45.034;38.910;2022-10-22T07:07:44;3.42;;;2.08;;
75687;SDS011;64300;45.034;38.910;2022-10-22T07:10:10;4.43;;;2.00;;
75687;SDS011;64300;45.034;38.910;2022-10-22T07:12:36;4.25;;;2.17;;
75687;SDS011;64300;45.034;38.910;2022-10-22T07:15:02;4.00;;;2.10;;
75687;SDS011;64300;45.034;38.910;2022-10-22T07:17:28;6.10;;;3.20;;
75687;SDS011;64300;45.034;38.910;2022-10-22T07:19:54;4.38;;;2.25;;
75687;SDS011;64300;45.034;38.910;2022-10-22T07:22:20;4.80;;;2.60;;
75687;SDS011;64300;45.034;38.910;2022-10-22T07:24:45;5.93;;;2.15;;
75687;SDS011;64300;45.034;38.910;2022-10-22T07:27:11;6.20;;;3.03;;
75687;SDS011;64300;45.034;38.910;2022-10-22T07:29:37;7.93;;;3.08;;
75687;SDS011;64300;45.034;38.910;2022-10-22T07:32:03;4.53;;;2.55;;
75687;SDS011;64300;45.034;38.910;2022-10-22T07:34:29;5.00;;;2.30;;
75687;SDS011;64300;45.034;38.910;2022-10-22T07:36:55;10.20;;;2.53;;
75687;SDS011;64300;45.034;38.910;2022-10-22T07:39:21;5.18;;;1.90;;
75687;SDS011;64300;45.034;38.910;2022-10-22T07:41:50;8.48;;;2.35;;
75687;SDS011;64300;45.034;38.910;2022-10-22T07:44:18;5.43;;;2.28;;
75687;SDS011;64300;45.034;38.910;2022-10-22T07:46:44;6.70;;;2.25;;
75687;SDS011;64300;45.034;38.910;2022-10-22T07:49:10;4.10;;;2.10;;
75687;SDS011;64300;45.034;38.910;2022-10-22T07:51:36;4.22;;;2.20;;
75687;SDS011;64300;45.034;38.910;2022-10-22T07:54:02;4.38;;;2.00;;
75687;SDS011;64300;45.034;38.910;2022-10-22T07:56:29;5.55;;;2.30;;
75687;SDS011;64300;45.034;38.910;2022-10-22T07:58:55;4.25;;;2.15;;
75687;SDS011;64300;45.034;38.910;2022-10-22T08:01:21;9.90;;;2.22;;
75687;SDS011;64300;45.034;38.910;2022-10-22T08:03:48;5.20;;;2.08;;
75687;SDS011;64300;45.034;38.910;2022-10-22T08:06:14;4.53;;;1.95;;
75687;SDS011;64300;45.034;38.910;2022-10-22T08:08:42;4.40;;;1.85;;
75687;SDS011;64300;45.034;38.910;2022-10-22T08:11:10;6.10;;;1.60;;
75687;SDS011;64300;45.034;38.910;2022-10-22T08:13:37;10.02;;;2.20;;
75687;SDS011;64300;45.034;38.910;2022-10-22T08:16:03;3.92;;;1.60;;
75687;SDS011;64300;45.034;38.910;2022-10-22T08:18:30;5.72;;;1.67;;
75687;SDS011;64300;45.034;38.910;2022-10-22T08:20:56;5.80;;;1.55;;
75687;SDS011;64300;45.034;38.910;2022-10-22T08:23:22;4.13;;;1.45;;
75687;SDS011;64300;45.034;38.910;2022-10-22T08:25:48;7.10;;;3.05;;
75687;SDS011;64300;45.034;38.910;2022-10-22T08:28:14;3.42;;;1.58;;
75687;SDS011;64300;45.034;38.910;2022-10-22T08:30:40;4.03;;;1.80;;
75687;SDS011;64300;45.034;38.910;2022-10-22T08:33:07;9.90;;;1.65;;
75687;SDS011;64300;45.034;38.910;2022-10-22T08:35:32;4.75;;;1.50;;
75687;SDS011;64300;45.034;38.910;2022-10-22T08:37:59;3.92;;;1.70;;
75687;SDS011;64300;45.034;38.910;2022-10-22T08:40:28;4.55;;;1.23;;
75687;SDS011;64300;45.034;38.910;2022-10-22T08:43:12;3.85;;;1.30;;
75687;SDS011;64300;45.034;38.910;2022-10-22T08:46:06;2.42;;;0.80;;
75687;SDS011;64300;45.034;38.910;2022-10-22T08:48:42;2.50;;;1.00;;
75687;SDS011;64300;45.034;38.910;2022-10-22T08:54:52;3.10;;;0.90;;
75687;SDS011;64300;45.034;38.910;2022-10-22T09:03:20;1.85;;;0.73;;
75687;SDS011;64300;45.034;38.910;2022-10-22T09:06:14;2.53;;;1.00;;
75687;SDS011;64300;45.034;38.910;2022-10-22T09:11:16;4.43;;;1.45;;
75687;SDS011;64300;45.034;38.910;2022-10-22T09:13:58;5.50;;;1.20;;
75687;SDS011;64300;45.034;38.910;2022-10-22T09:16:52;4.50;;;1.90;;
75687;SDS011;64300;45.034;38.910;2022-10-22T09:19:50;6.25;;;1.27;;
75687;SDS011;64300;45.034;38.910;2022-10-22T09:22:33;3.28;;;1.17;;
75687;SDS011;64300;45.034;38.910;2022-10-22T09:25:16;3.92;;;1.15;;
75687;SDS011;64300;45.034;38.910;2022-10-22T09:27:47;3.22;;;1.13;;
75687;SDS011;64300;45.034;38.910;2022-10-22T09:30:20;4.05;;;1.30;;
75687;SDS011;64300;45.034;38.910;2022-10-22T09:32:58;9.55;;;1.42;;
75687;SDS011;64300;45.034;38.910;2022-10-22T09:35:27;2.80;;;1.20;;
75687;SDS011;64300;45.034;38.910;2022-10-22T09:37:57;5.55;;;1.55;;
75687;SDS011;64300;45.034;38.910;2022-10-22T09:40:31;4.55;;;1.10;;
75687;SDS011;64300;45.034;38.910;2022-10-22T09:43:14;2.72;;;1.05;;
75687;SDS011;64300;45.034;38.910;2022-10-22T09:45:40;3.20;;;1.42;;
75687;SDS011;64300;45.034;38.910;2022-10-22T09:53:14;2.85;;;1.20;;
75687;SDS011;64300;45.034;38.910;2022-10-22T09:55:58;3.65;;;1.30;;
75687;SDS011;64300;45.034;38.910;2022-10-22T09:58:26;2.53;;;1.45;;
75687;SDS011;64300;45.034;38.910;2022-10-22T10:00:53;4.00;;;1.50;;
75687;SDS011;64300;45.034;38.910;2022-10-22T10:03:22;3.20;;;1.25;;
75687;SDS011;64300;45.034;38.910;2022-10-22T10:05:52;2.15;;;0.85;;
75687;SDS011;64300;45.034;38.910;2022-10-22T10:08:20;3.00;;;1.40;;
75687;SDS011;64300;45.034;38.910;2022-10-22T10:28:18;4.35;;;1.65;;
75687;SDS011;64300;45.034;38.910;2022-10-22T10:34:21;3.85;;;1.27;;
75687;SDS011;64300;45.034;38.910;2022-10-22T10:45:17;4.10;;;1.40;;
75687;SDS011;64300;45.034;38.910;2022-10-22T10:47:55;4.35;;;1.55;;
75687;SDS011;64300;45.034;38.910;2022-10-22T10:58:24;5.53;;;1.50;;
75687;SDS011;64300;45.034;38.910;2022-10-22T11:01:11;3.38;;;1.27;;
75687;SDS011;64300;45.034;38.910;2022-10-22T11:06:38;2.90;;;1.00;;
75687;SDS011;64300;45.034;38.910;2022-10-22T11:09:12;3.15;;;1.13;;
75687;SDS011;64300;45.034;38.910;2022-10-22T11:14:31;5.10;;;1.35;;
75687;SDS011;64300;45.034;38.910;2022-10-22T11:17:15;4.05;;;1.50;;
75687;SDS011;64300;45.034;38.910;2022-10-22T11:25:33;4.47;;;1.60;;
75687;SDS011;64300;45.034;38.910;2022-10-22T11:30:46;4.32;;;1.77;;
75687;SDS011;64300;45.034;38.910;2022-10-22T11:33:20;3.50;;;1.70;;
75687;SDS011;64300;45.034;38.910;2022-10-22T11:35:54;3.03;;;1.50;;
75687;SDS011;64300;45.034;38.910;2022-10-22T11:38:24;3.08;;;1.40;;
75687;SDS011;64300;45.034;38.910;2022-10-22T11:40:57;3.08;;;1.48;;
75687;SDS011;64300;45.034;38.910;2022-10-22T11:43:31;5.50;;;1.35;;
75687;SDS011;64300;45.034;38.910;2022-10-22T11:46:46;3.38;;;1.20;;
75687;SDS011;64300;45.034;38.910;2022-10-22T11:49:41;3.22;;;1.25;;
75687;SDS011;64300;45.034;38.910;2022-10-22T11:51:38;3.83;;;1.67;;
75687;SDS011;64300;45.034;38.910;2022-10-22T12:02:21;3.95;;;1.30;;
75687;SDS011;64300;45.034;38.910;2022-10-22T12:07:54;2.95;;;1.25;;
75687;SDS011;64300;45.034;38.910;2022-10-22T12:10:25;3.58;;;1.30;;
75687;SDS011;64300;45.034;38.910;2022-10-22T12:13:04;2.58;;;1.20;;
75687;SDS011;64300;45.034;38.910;2022-10-22T12:18:27;4.05;;;1.20;;
75687;SDS011;64300;45.034;38.910;2022-10-22T12:21:01;3.13;;;1.40;;
75687;SDS011;64300;45.034;38.910;2022-10-22T12:23:30;2.90;;;1.30;;
75687;SDS011;64300;45.034;38.910;2022-10-22T12:25:59;2.80;;;1.20;;
75687;SDS011;64300;45.034;38.910;2022-10-22T12:28:26;3.63;;;1.00;;
75687;SDS011;64300;45.034;38.910;2022-10-22T12:30:52;3.08;;;1.30;;
75687;SDS011;64300;45.034;38.910;2022-10-22T12:33:21;3.78;;;1.33;;
75687;SDS011;64300;45.034;38.910;2022-10-22T12:35:48;3.38;;;1.50;;
75687;SDS011;64300;45.034;38.910;2022-10-22T12:38:18;5.25;;;2.03;;
75687;SDS011;64300;45.034;38.910;2022-10-22T12:40:46;2.88;;;1.33;;
75687;SDS011;64300;45.034;38.910;2022-10-22T12:43:18;2.92;;;1.38;;
75687;SDS011;64300;45.034;38.910;2022-10-22T12:45:49;3.05;;;1.30;;
75687;SDS011;64300;45.034;38.910;2022-10-22T12:50:45;3.65;;;1.45;;
75687;SDS011;64300;45.034;38.910;2022-10-22T12:53:16;2.50;;;1.10;;
75687;SDS011;64300;45.034;38.910;2022-10-22T12:55:46;2.72;;;1.15;;
75687;SDS011;64300;45.034;38.910;2022-10-22T12:58:21;6.28;;;1.50;;
75687;SDS011;64300;45.034;38.910;2022-10-22T13:04:04;3.33;;;1.33;;
75687;SDS011;64300;45.034;38.910;2022-10-22T13:06:32;4.32;;;1.25;;
75687;SDS011;64300;45.034;38.910;2022-10-22T13:11:33;3.22;;;1.20;;
75687;SDS011;64300;45.034;38.910;2022-10-22T13:14:05;2.70;;;1.10;;
75687;SDS011;64300;45.034;38.910;2022-10-22T13:17:01;3.85;;;1.38;;
75687;SDS011;64300;45.034;38.910;2022-10-22T13:20:15;3.28;;;1.42;;
75687;SDS011;64300;45.034;38.910;2022-10-22T13:22:31;3.47;;;1.30;;
75687;SDS011;64300;45.034;38.910;2022-10-22T13:25:14;4.28;;;1.83;;
75687;SDS011;64300;45.034;38.910;2022-10-22T13:27:58;3.28;;;1.48;;
75687;SDS011;64300;45.034;38.910;2022-10-22T13:30:30;3.20;;;1.73;;
75687;SDS011;64300;45.034;38.910;2022-10-22T13:33:02;5.18;;;1.42;;
75687;SDS011;64300;45.034;38.910;2022-10-22T13:35:32;3.35;;;1.50;;
75687;SDS011;64300;45.034;38.910;2022-10-22T13:38:00;3.05;;;1.23;;
75687;SDS011;64300;45.034;38.910;2022-10-22T13:40:39;3.88;;;1.58;;
75687;SDS011;64300;45.034;38.910;2022-10-22T13:43:05;2.97;;;1.40;;
75687;SDS011;64300;45.034;38.910;2022-10-22T13:45:31;3.72;;;1.50;;
75687;SDS011;64300;45.034;38.910;2022-10-22T13:47:57;4.00;;;1.33;;
75687;SDS011;64300;45.034;38.910;2022-10-22T13:50:23;5.80;;;1.50;;
75687;SDS011;64300;45.034;38.910;2022-10-22T13:52:50;4.15;;;1.23;;
75687;SDS011;64300;45.034;38.910;2022-10-22T13:57:52;4.32;;;1.40;;
75687;SDS011;64300;45.034;38.910;2022-10-22T14:00:21;4.95;;;1.63;;
75687;SDS011;64300;45.034;38.910;2022-10-22T14:02:51;3.10;;;1.33;;
75687;SDS011;64300;45.034;38.910;2022-10-22T14:05:19;4.93;;;1.55;;
75687;SDS011;64300;45.034;38.910;2022-10-22T14:07:48;4.40;;;1.58;;
75687;SDS011;64300;45.034;38.910;2022-10-22T14:10:19;4.50;;;1.63;;
75687;SDS011;64300;45.034;38.910;2022-10-22T14:12:46;4.47;;;1.85;;
75687;SDS011;64300;45.034;38.910;2022-10-22T14:15:13;3.75;;;1.80;;
75687;SDS011;64300;45.034;38.910;2022-10-22T14:17:44;5.93;;;2.25;;
75687;SDS011;64300;45.034;38.910;2022-10-22T14:20:15;6.78;;;2.40;;
75687;SDS011;64300;45.034;38.910;2022-10-22T14:22:44;5.35;;;2.67;;
75687;SDS011;64300;45.034;38.910;2022-10-22T14:25:18;7.25;;;2.08;;
75687;SDS011;64300;45.034;38.910;2022-10-22T14:27:46;6.15;;;2.38;;
75687;SDS011;64300;45.034;38.910;2022-10-22T14:30:16;5.82;;;2.28;;
75687;SDS011;64300;45.034;38.910;2022-10-22T14:32:44;4.50;;;2.13;;
75687;SDS011;64300;45.034;38.910;2022-10-22T14:35:12;5.82;;;2.70;;
75687;SDS011;64300;45.034;38.910;2022-10-22T14:37:40;5.43;;;2.63;;
75687;SDS011;64300;45.034;38.910;2022-10-22T14:40:07;7.03;;;3.00;;
75687;SDS011;64300;45.034;38.910;2022-10-22T14:42:39;6.13;;;3.45;;
75687;SDS011;64300;45.034;38.910;2022-10-22T14:45:25;6.20;;;2.55;;
75687;SDS011;64300;45.034;38.910;2022-10-22T14:50:23;8.93;;;3.10;;
75687;SDS011;64300;45.034;38.910;2022-10-22T14:52:49;6.10;;;2.78;;
75687;SDS011;64300;45.034;38.910;2022-10-22T14:55:17;6.90;;;3.35;;
75687;SDS011;64300;45.034;38.910;2022-10-22T14:57:44;8.10;;;3.75;;
75687;SDS011;64300;45.034;38.910;2022-10-22T15:00:11;5.60;;;3.25;;
75687;SDS011;64300;45.034;38.910;2022-10-22T15:02:43;6.82;;;3.17;;
75687;SDS011;64300;45.034;38.910;2022-10-22T15:05:09;5.35;;;2.75;;
75687;SDS011;64300;45.034;38.910;2022-10-22T15:07:36;7.07;;;2.65;;
75687;SDS011;64300;45.034;38.910;2022-10-22T15:10:03;11.05;;;3.40;;
75687;SDS011;64300;45.034;38.910;2022-10-22T15:12:33;7.65;;;3.53;;
75687;SDS011;64300;45.034;38.910;2022-10-22T15:14:59;8.88;;;3.97;;
75687;SDS011;64300;45.034;38.910;2022-10-22T15:17:26;7.28;;;3.50;;
75687;SDS011;64300;45.034;38.910;2022-10-22T15:19:52;5.50;;;2.78;;
75687;SDS011;64300;45.034;38.910;2022-10-22T15:22:20;11.57;;;5.00;;
75687;SDS011;64300;45.034;38.910;2022-10-22T15:24:46;9.73;;;4.10;;
75687;SDS011;64300;45.034;38.910;2022-10-22T15:27:13;9.65;;;4.53;;
75687;SDS011;64300;45.034;38.910;2022-10-22T15:29:40;9.32;;;4.40;;
75687;SDS011;64300;45.034;38.910;2022-10-22T15:32:06;8.07;;;3.60;;
75687;SDS011;64300;45.034;38.910;2022-10-22T15:34:37;9.77;;;4.10;;
75687;SDS011;64300;45.034;38.910;2022-10-22T15:37:05;14.00;;;4.22;;
75687;SDS011;64300;45.034;38.910;2022-10-22T15:39:38;11.25;;;3.97;;
75687;SDS011;64300;45.034;38.910;2022-10-22T15:42:05;11.57;;;5.82;;
75687;SDS011;64300;45.034;38.910;2022-10-22T15:44:31;15.00;;;6.03;;
75687;SDS011;64300;45.034;38.910;2022-10-22T15:46:59;10.48;;;5.60;;
75687;SDS011;64300;45.034;38.910;2022-10-22T15:49:28;19.58;;;7.22;;
75687;SDS011;64300;45.034;38.910;2022-10-22T15:51:54;14.25;;;6.38;;
75687;SDS011;64300;45.034;38.910;2022-10-22T15:54:21;17.90;;;6.95;;
75687;SDS011;64300;45.034;38.910;2022-10-22T15:56:49;18.30;;;6.25;;
75687;SDS011;64300;45.034;38.910;2022-10-22T15:59:18;13.82;;;5.80;;
75687;SDS011;64300;45.034;38.910;2022-10-22T16:01:45;15.40;;;6.50;;
75687;SDS011;64300;45.034;38.910;2022-10-22T16:04:11;11.55;;;6.10;;
75687;SDS011;64300;45.034;38.910;2022-10-22T16:06:38;17.13;;;6.05;;
75687;SDS011;64300;45.034;38.910;2022-10-22T16:09:07;13.63;;;7.05;;
75687;SDS011;64300;45.034;38.910;2022-10-22T16:11:35;15.40;;;6.65;;
75687;SDS011;64300;45.034;38.910;2022-10-22T16:14:01;14.15;;;6.82;;
75687;SDS011;64300;45.034;38.910;2022-10-22T16:16:29;17.77;;;6.55;;
75687;SDS011;64300;45.034;38.910;2022-10-22T16:18:56;14.10;;;6.38;;
75687;SDS011;64300;45.034;38.910;2022-10-22T16:21:22;12.60;;;5.93;;
75687;SDS011;64300;45.034;38.910;2022-10-22T16:23:49;14.38;;;7.10;;
75687;SDS011;64300;45.034;38.910;2022-10-22T16:26:15;14.57;;;6.45;;
75687;SDS011;64300;45.034;38.910;2022-10-22T16:28:42;19.00;;;7.47;;
75687;SDS011;64300;45.034;38.910;2022-10-22T16:31:11;20.15;;;8.77;;
75687;SDS011;64300;45.034;38.910;2022-10-22T16:33:39;17.25;;;7.15;;
75687;SDS011;64300;45.034;38.910;2022-10-22T16:36:07;17.60;;;9.50;;
75687;SDS011;64300;45.034;38.910;2022-10-22T16:38:34;21.70;;;8.43;;
75687;SDS011;64300;45.034;38.910;2022-10-22T16:41:10;18.23;;;8.30;;
75687;SDS011;64300;45.034;38.910;2022-10-22T16:43:39;19.55;;;7.40;;
75687;SDS011;64300;45.034;38.910;2022-10-22T16:46:07;17.10;;;7.85;;
75687;SDS011;64300;45.034;38.910;2022-10-22T16:48:34;20.05;;;8.13;;
75687;SDS011;64300;45.034;38.910;2022-10-22T16:51:08;16.55;;;8.05;;
75687;SDS011;64300;45.034;38.910;2022-10-22T16:53:37;19.15;;;9.00;;
75687;SDS011;64300;45.034;38.910;2022-10-22T16:56:03;18.33;;;8.85;;
75687;SDS011;64300;45.034;38.910;2022-10-22T16:58:36;25.95;;;9.60;;
75687;SDS011;64300;45.034;38.910;2022-10-22T17:01:06;26.80;;;11.45;;
75687;SDS011;64300;45.034;38.910;2022-10-22T17:03:33;21.95;;;9.55;;
75687;SDS011;64300;45.034;38.910;2022-10-22T17:05:59;20.08;;;9.00;;
75687;SDS011;64300;45.034;38.910;2022-10-22T17:08:27;22.63;;;9.25;;
75687;SDS011;64300;45.034;38.910;2022-10-22T17:10:54;22.92;;;10.15;;
75687;SDS011;64300;45.034;38.910;2022-10-22T17:13:20;22.83;;;10.30;;
75687;SDS011;64300;45.034;38.910;2022-10-22T17:15:46;24.27;;;10.60;;
75687;SDS011;64300;45.034;38.910;2022-10-22T17:18:13;26.67;;;11.25;;
75687;SDS011;64300;45.034;38.910;2022-10-22T17:20:42;24.70;;;11.15;;
75687;SDS011;64300;45.034;38.910;2022-10-22T17:23:42;27.88;;;11.30;;
75687;SDS011;64300;45.034;38.910;2022-10-22T17:26:02;22.88;;;11.35;;
75687;SDS011;64300;45.034;38.910;2022-10-22T17:28:38;26.52;;;12.15;;
75687;SDS011;64300;45.034;38.910;2022-10-22T17:31:05;25.35;;;12.35;;
75687;SDS011;64300;45.034;38.910;2022-10-22T17:33:33;25.40;;;12.23;;
75687;SDS011;64300;45.034;38.910;2022-10-22T17:39:16;26.52;;;12.50;;
75687;SDS011;64300;45.034;38.910;2022-10-22T17:41:43;33.03;;;12.40;;
75687;SDS011;64300;45.034;38.910;2022-10-22T17:44:10;24.55;;;12.18;;
75687;SDS011;64300;45.034;38.910;2022-10-22T17:46:38;26.45;;;12.23;;
75687;SDS011;64300;45.034;38.910;2022-10-22T17:49:09;26.27;;;11.88;;
75687;SDS011;64300;45.034;38.910;2022-10-22T17:51:42;29.75;;;12.35;;
75687;SDS011;64300;45.034;38.910;2022-10-22T17:54:08;24.48;;;12.45;;
75687;SDS011;64300;45.034;38.910;2022-10-22T17:56:34;28.42;;;12.23;;
75687;SDS011;64300;45.034;38.910;2022-10-22T17:59:01;27.25;;;12.00;;
75687;SDS011;64300;45.034;38.910;2022-10-22T18:01:30;28.45;;;12.73;;
75687;SDS011;64300;45.034;38.910;2022-10-22T18:03:59;28.90;;;13.35;;
75687;SDS011;64300;45.034;38.910;2022-10-22T18:06:29;29.70;;;12.95;;
75687;SDS011;64300;45.034;38.910;2022-10-22T18:08:56;29.77;;;14.30;;